sensor_id;sensor_type;location;lat;lon;timestamp;P1;durP1;ratioP1;P2;durP2;ratioP2
78728;SDS011;68252;44.944;20.218;2023-02-28T00:00:12;27.95;;;14.57;;
78728;SDS011;68252;44.944;20.218;2023-02-28T00:02:39;25.42;;;15.38;;
78728;SDS011;68252;44.944;20.218;2023-02-28T00:05:06;28.70;;;15.45;;
78728;SDS011;68252;44.944;20.218;2023-02-28T00:07:32;29.10;;;16.70;;
78728;SDS011;68252;44.944;20.218;2023-02-28T00:09:58;28.20;;;15.48;;
78728;SDS011;68252;44.944;20.218;2023-02-28T00:12:25;25.02;;;15.27;;
78728;SDS011;68252;44.944;20.218;2023-02-28T00:14:51;27.70;;;15.52;;
78728;SDS011;68252;44.944;20.218;2023-02-28T00:17:17;27.45;;;16.00;;
78728;SDS011;68252;44.944;20.218;2023-02-28T00:19:46;30.63;;;16.30;;
78728;SDS011;68252;44.944;20.218;2023-02-28T00:22:13;28.33;;;15.35;;
78728;SDS011;68252;44.944;20.218;2023-02-28T00:24:39;31.05;;;16.75;;
78728;SDS011;68252;44.944;20.218;2023-02-28T00:27:05;28.60;;;15.88;;
78728;SDS011;68252;44.944;20.218;2023-02-28T00:29:31;28.95;;;16.17;;
78728;SDS011;68252;44.944;20.218;2023-02-28T00:31:57;28.67;;;16.05;;
78728;SDS011;68252;44.944;20.218;2023-02-28T00:34:23;25.13;;;14.63;;
78728;SDS011;68252;44.944;20.218;2023-02-28T00:36:49;24.55;;;14.70;;
78728;SDS011;68252;44.944;20.218;2023-02-28T00:39:15;25.48;;;14.52;;
78728;SDS011;68252;44.944;20.218;2023-02-28T00:41:41;26.73;;;14.38;;
78728;SDS011;68252;44.944;20.218;2023-02-28T00:44:07;26.88;;;14.85;;
78728;SDS011;68252;44.944;20.218;2023-02-28T00:46:34;24.40;;;13.88;;
78728;SDS011;68252;44.944;20.218;2023-02-28T00:49:00;21.75;;;12.55;;
78728;SDS011;68252;44.944;20.218;2023-02-28T00:51:26;22.00;;;12.73;;
78728;SDS011;68252;44.944;20.218;2023-02-28T00:53:52;22.85;;;13.55;;
78728;SDS011;68252;44.944;20.218;2023-02-28T00:56:18;25.65;;;13.60;;
78728;SDS011;68252;44.944;20.218;2023-02-28T00:58:45;22.33;;;13.60;;
78728;SDS011;68252;44.944;20.218;2023-02-28T01:01:11;24.13;;;12.77;;
78728;SDS011;68252;44.944;20.218;2023-02-28T01:03:37;23.38;;;13.07;;
78728;SDS011;68252;44.944;20.218;2023-02-28T01:06:03;24.65;;;14.40;;
78728;SDS011;68252;44.944;20.218;2023-02-28T01:08:29;24.45;;;14.10;;
78728;SDS011;68252;44.944;20.218;2023-02-28T01:10:55;26.10;;;14.70;;
78728;SDS011;68252;44.944;20.218;2023-02-28T01:13:22;25.23;;;12.93;;
78728;SDS011;68252;44.944;20.218;2023-02-28T01:15:49;21.85;;;12.70;;
78728;SDS011;68252;44.944;20.218;2023-02-28T01:18:16;24.42;;;12.73;;
78728;SDS011;68252;44.944;20.218;2023-02-28T01:20:42;21.30;;;12.82;;
78728;SDS011;68252;44.944;20.218;2023-02-28T01:23:09;21.80;;;12.95;;
78728;SDS011;68252;44.944;20.218;2023-02-28T01:25:35;24.17;;;12.52;;
78728;SDS011;68252;44.944;20.218;2023-02-28T01:28:01;22.85;;;12.88;;
78728;SDS011;68252;44.944;20.218;2023-02-28T01:30:27;28.98;;;12.77;;
78728;SDS011;68252;44.944;20.218;2023-02-28T01:32:53;24.17;;;14.10;;
78728;SDS011;68252;44.944;20.218;2023-02-28T01:35:20;22.52;;;13.60;;
78728;SDS011;68252;44.944;20.218;2023-02-28T01:37:46;23.13;;;13.43;;
78728;SDS011;68252;44.944;20.218;2023-02-28T01:40:12;24.10;;;13.40;;
78728;SDS011;68252;44.944;20.218;2023-02-28T01:42:38;25.88;;;12.20;;
78728;SDS011;68252;44.944;20.218;2023-02-28T01:47:42;24.13;;;13.80;;
78728;SDS011;68252;44.944;20.218;2023-02-28T01:50:13;19.50;;;11.93;;
78728;SDS011;68252;44.944;20.218;2023-02-28T01:52:40;22.95;;;13.10;;
78728;SDS011;68252;44.944;20.218;2023-02-28T01:55:06;21.98;;;13.02;;
78728;SDS011;68252;44.944;20.218;2023-02-28T01:57:40;23.02;;;13.77;;
78728;SDS011;68252;44.944;20.218;2023-02-28T02:00:09;23.45;;;13.88;;
78728;SDS011;68252;44.944;20.218;2023-02-28T02:02:39;23.60;;;14.15;;
78728;SDS011;68252;44.944;20.218;2023-02-28T02:05:12;22.27;;;13.43;;
78728;SDS011;68252;44.944;20.218;2023-02-28T02:07:40;24.65;;;14.35;;
78728;SDS011;68252;44.944;20.218;2023-02-28T02:13:17;23.15;;;14.25;;
78728;SDS011;68252;44.944;20.218;2023-02-28T02:15:24;24.95;;;15.00;;
78728;SDS011;68252;44.944;20.218;2023-02-28T02:28:26;27.20;;;15.85;;
78728;SDS011;68252;44.944;20.218;2023-02-28T02:31:06;28.08;;;15.98;;
78728;SDS011;68252;44.944;20.218;2023-02-28T02:38:34;27.58;;;15.63;;
78728;SDS011;68252;44.944;20.218;2023-02-28T02:44:15;27.73;;;15.40;;
78728;SDS011;68252;44.944;20.218;2023-02-28T02:46:45;28.77;;;16.38;;
78728;SDS011;68252;44.944;20.218;2023-02-28T02:49:21;28.20;;;16.25;;
78728;SDS011;68252;44.944;20.218;2023-02-28T02:51:48;26.85;;;16.48;;
78728;SDS011;68252;44.944;20.218;2023-02-28T02:54:16;30.08;;;16.88;;
78728;SDS011;68252;44.944;20.218;2023-02-28T02:56:44;29.23;;;16.80;;
78728;SDS011;68252;44.944;20.218;2023-02-28T02:59:11;29.15;;;16.70;;
78728;SDS011;68252;44.944;20.218;2023-02-28T03:01:38;29.25;;;16.83;;
78728;SDS011;68252;44.944;20.218;2023-02-28T03:04:10;29.70;;;17.25;;
78728;SDS011;68252;44.944;20.218;2023-02-28T03:06:37;28.85;;;17.25;;
78728;SDS011;68252;44.944;20.218;2023-02-28T03:09:03;28.58;;;16.10;;
78728;SDS011;68252;44.944;20.218;2023-02-28T03:11:30;25.70;;;15.75;;
78728;SDS011;68252;44.944;20.218;2023-02-28T03:24:43;34.15;;;18.17;;
78728;SDS011;68252;44.944;20.218;2023-02-28T03:27:19;32.40;;;18.05;;
78728;SDS011;68252;44.944;20.218;2023-02-28T03:29:52;33.47;;;17.83;;
78728;SDS011;68252;44.944;20.218;2023-02-28T03:34:50;37.47;;;18.75;;
78728;SDS011;68252;44.944;20.218;2023-02-28T03:37:19;31.83;;;18.55;;
78728;SDS011;68252;44.944;20.218;2023-02-28T03:39:55;34.67;;;19.47;;
78728;SDS011;68252;44.944;20.218;2023-02-28T03:42:25;34.38;;;19.58;;
78728;SDS011;68252;44.944;20.218;2023-02-28T03:44:59;31.48;;;18.10;;
78728;SDS011;68252;44.944;20.218;2023-02-28T03:47:33;33.22;;;19.05;;
78728;SDS011;68252;44.944;20.218;2023-02-28T03:50:05;31.55;;;17.77;;
78728;SDS011;68252;44.944;20.218;2023-02-28T03:52:34;31.67;;;18.45;;
78728;SDS011;68252;44.944;20.218;2023-02-28T03:55:02;33.13;;;18.95;;
78728;SDS011;68252;44.944;20.218;2023-02-28T04:00:12;33.38;;;19.40;;
78728;SDS011;68252;44.944;20.218;2023-02-28T04:02:40;35.53;;;20.08;;
78728;SDS011;68252;44.944;20.218;2023-02-28T04:05:06;35.22;;;19.35;;
78728;SDS011;68252;44.944;20.218;2023-02-28T04:07:32;33.90;;;19.58;;
78728;SDS011;68252;44.944;20.218;2023-02-28T04:09:59;34.65;;;19.25;;
78728;SDS011;68252;44.944;20.218;2023-02-28T04:12:25;37.42;;;21.45;;
78728;SDS011;68252;44.944;20.218;2023-02-28T04:14:51;36.60;;;19.98;;
78728;SDS011;68252;44.944;20.218;2023-02-28T04:17:17;32.42;;;19.35;;
78728;SDS011;68252;44.944;20.218;2023-02-28T04:19:44;31.45;;;18.45;;
78728;SDS011;68252;44.944;20.218;2023-02-28T04:22:10;34.55;;;19.30;;
78728;SDS011;68252;44.944;20.218;2023-02-28T04:24:36;35.78;;;20.20;;
78728;SDS011;68252;44.944;20.218;2023-02-28T04:27:06;34.67;;;19.98;;
78728;SDS011;68252;44.944;20.218;2023-02-28T04:29:32;31.60;;;18.33;;
78728;SDS011;68252;44.944;20.218;2023-02-28T04:31:59;30.92;;;17.50;;
78728;SDS011;68252;44.944;20.218;2023-02-28T04:34:28;34.22;;;18.95;;
78728;SDS011;68252;44.944;20.218;2023-02-28T04:36:55;33.83;;;19.25;;
78728;SDS011;68252;44.944;20.218;2023-02-28T04:39:22;33.83;;;19.58;;
78728;SDS011;68252;44.944;20.218;2023-02-28T04:41:48;36.15;;;19.17;;
78728;SDS011;68252;44.944;20.218;2023-02-28T04:44:14;33.58;;;20.40;;
78728;SDS011;68252;44.944;20.218;2023-02-28T04:46:41;35.55;;;20.38;;
78728;SDS011;68252;44.944;20.218;2023-02-28T04:49:08;31.70;;;18.38;;
78728;SDS011;68252;44.944;20.218;2023-02-28T04:51:34;36.05;;;20.10;;
78728;SDS011;68252;44.944;20.218;2023-02-28T04:54:00;39.63;;;21.38;;
78728;SDS011;68252;44.944;20.218;2023-02-28T04:56:26;36.72;;;20.35;;
78728;SDS011;68252;44.944;20.218;2023-02-28T04:58:52;36.17;;;20.10;;
78728;SDS011;68252;44.944;20.218;2023-02-28T05:01:23;40.72;;;20.63;;
78728;SDS011;68252;44.944;20.218;2023-02-28T05:03:50;38.55;;;19.98;;
78728;SDS011;68252;44.944;20.218;2023-02-28T05:06:16;34.22;;;20.52;;
78728;SDS011;68252;44.944;20.218;2023-02-28T05:08:43;37.45;;;20.58;;
78728;SDS011;68252;44.944;20.218;2023-02-28T05:11:13;38.95;;;21.13;;
78728;SDS011;68252;44.944;20.218;2023-02-28T05:14:03;41.45;;;21.85;;
78728;SDS011;68252;44.944;20.218;2023-02-28T05:16:29;38.10;;;21.05;;
78728;SDS011;68252;44.944;20.218;2023-02-28T05:18:56;36.40;;;20.95;;
78728;SDS011;68252;44.944;20.218;2023-02-28T05:23:51;43.63;;;24.92;;
78728;SDS011;68252;44.944;20.218;2023-02-28T05:26:18;39.97;;;21.35;;
78728;SDS011;68252;44.944;20.218;2023-02-28T05:28:44;36.90;;;21.13;;
78728;SDS011;68252;44.944;20.218;2023-02-28T05:31:10;35.42;;;20.52;;
78728;SDS011;68252;44.944;20.218;2023-02-28T05:33:37;42.53;;;20.33;;
78728;SDS011;68252;44.944;20.218;2023-02-28T05:36:03;38.13;;;21.33;;
78728;SDS011;68252;44.944;20.218;2023-02-28T05:38:29;44.45;;;22.42;;
78728;SDS011;68252;44.944;20.218;2023-02-28T05:40:55;39.92;;;21.35;;
78728;SDS011;68252;44.944;20.218;2023-02-28T05:43:21;40.70;;;22.23;;
78728;SDS011;68252;44.944;20.218;2023-02-28T05:45:47;36.45;;;20.40;;
78728;SDS011;68252;44.944;20.218;2023-02-28T05:48:13;45.90;;;21.00;;
78728;SDS011;68252;44.944;20.218;2023-02-28T05:50:39;41.28;;;21.85;;
78728;SDS011;68252;44.944;20.218;2023-02-28T05:53:07;40.05;;;20.63;;
78728;SDS011;68252;44.944;20.218;2023-02-28T05:55:33;36.92;;;19.65;;
78728;SDS011;68252;44.944;20.218;2023-02-28T05:58:01;39.97;;;21.33;;
78728;SDS011;68252;44.944;20.218;2023-02-28T06:00:27;38.88;;;21.02;;
78728;SDS011;68252;44.944;20.218;2023-02-28T06:02:53;41.38;;;20.85;;
78728;SDS011;68252;44.944;20.218;2023-02-28T06:05:21;41.72;;;21.13;;
78728;SDS011;68252;44.944;20.218;2023-02-28T06:07:47;48.13;;;24.20;;
78728;SDS011;68252;44.944;20.218;2023-02-28T06:10:13;44.30;;;23.48;;
78728;SDS011;68252;44.944;20.218;2023-02-28T06:12:40;45.60;;;24.20;;
78728;SDS011;68252;44.944;20.218;2023-02-28T06:15:07;40.55;;;22.02;;
78728;SDS011;68252;44.944;20.218;2023-02-28T06:17:33;43.22;;;23.85;;
78728;SDS011;68252;44.944;20.218;2023-02-28T06:19:59;43.67;;;23.02;;
78728;SDS011;68252;44.944;20.218;2023-02-28T06:22:25;43.92;;;22.75;;
78728;SDS011;68252;44.944;20.218;2023-02-28T06:24:51;50.28;;;25.70;;
78728;SDS011;68252;44.944;20.218;2023-02-28T06:27:17;39.97;;;22.40;;
78728;SDS011;68252;44.944;20.218;2023-02-28T06:29:44;40.53;;;22.17;;
78728;SDS011;68252;44.944;20.218;2023-02-28T06:32:10;36.92;;;21.88;;
78728;SDS011;68252;44.944;20.218;2023-02-28T06:34:36;43.15;;;23.45;;
78728;SDS011;68252;44.944;20.218;2023-02-28T06:37:02;40.60;;;22.10;;
78728;SDS011;68252;44.944;20.218;2023-02-28T06:39:29;43.05;;;23.38;;
78728;SDS011;68252;44.944;20.218;2023-02-28T06:41:55;47.03;;;23.23;;
78728;SDS011;68252;44.944;20.218;2023-02-28T06:44:21;42.90;;;21.30;;
78728;SDS011;68252;44.944;20.218;2023-02-28T06:46:48;40.33;;;20.63;;
78728;SDS011;68252;44.944;20.218;2023-02-28T06:49:14;38.90;;;21.95;;
78728;SDS011;68252;44.944;20.218;2023-02-28T06:51:41;38.35;;;22.23;;
78728;SDS011;68252;44.944;20.218;2023-02-28T06:54:08;34.92;;;19.98;;
78728;SDS011;68252;44.944;20.218;2023-02-28T06:56:34;42.25;;;20.27;;
78728;SDS011;68252;44.944;20.218;2023-02-28T06:59:00;35.15;;;20.05;;
78728;SDS011;68252;44.944;20.218;2023-02-28T07:01:26;36.35;;;19.65;;
78728;SDS011;68252;44.944;20.218;2023-02-28T07:03:53;37.00;;;19.17;;
78728;SDS011;68252;44.944;20.218;2023-02-28T07:06:20;38.55;;;20.67;;
78728;SDS011;68252;44.944;20.218;2023-02-28T07:08:51;38.35;;;20.35;;
78728;SDS011;68252;44.944;20.218;2023-02-28T07:11:17;36.10;;;20.25;;
78728;SDS011;68252;44.944;20.218;2023-02-28T07:13:44;41.63;;;23.10;;
78728;SDS011;68252;44.944;20.218;2023-02-28T07:16:11;40.03;;;19.60;;
78728;SDS011;68252;44.944;20.218;2023-02-28T07:18:38;32.78;;;18.48;;
78728;SDS011;68252;44.944;20.218;2023-02-28T07:21:05;34.92;;;18.75;;
78728;SDS011;68252;44.944;20.218;2023-02-28T07:23:32;34.40;;;19.63;;
78728;SDS011;68252;44.944;20.218;2023-02-28T07:25:58;32.90;;;17.85;;
78728;SDS011;68252;44.944;20.218;2023-02-28T07:28:24;31.80;;;17.63;;
78728;SDS011;68252;44.944;20.218;2023-02-28T07:30:50;31.90;;;16.52;;
78728;SDS011;68252;44.944;20.218;2023-02-28T07:33:16;30.50;;;17.23;;
78728;SDS011;68252;44.944;20.218;2023-02-28T07:35:43;30.95;;;15.73;;
78728;SDS011;68252;44.944;20.218;2023-02-28T07:38:09;32.60;;;16.48;;
78728;SDS011;68252;44.944;20.218;2023-02-28T07:40:35;29.88;;;17.10;;
78728;SDS011;68252;44.944;20.218;2023-02-28T07:43:01;29.13;;;16.27;;
78728;SDS011;68252;44.944;20.218;2023-02-28T07:45:28;31.48;;;16.70;;
78728;SDS011;68252;44.944;20.218;2023-02-28T07:47:55;28.65;;;15.68;;
78728;SDS011;68252;44.944;20.218;2023-02-28T07:50:21;28.25;;;16.45;;
78728;SDS011;68252;44.944;20.218;2023-02-28T07:52:47;29.98;;;16.67;;
78728;SDS011;68252;44.944;20.218;2023-02-28T07:55:13;33.45;;;17.30;;
78728;SDS011;68252;44.944;20.218;2023-02-28T07:57:41;31.95;;;17.73;;
78728;SDS011;68252;44.944;20.218;2023-02-28T08:00:08;31.13;;;16.83;;
78728;SDS011;68252;44.944;20.218;2023-02-28T08:02:35;28.58;;;15.77;;
78728;SDS011;68252;44.944;20.218;2023-02-28T08:05:01;33.40;;;18.45;;
78728;SDS011;68252;44.944;20.218;2023-02-28T08:07:28;31.60;;;17.33;;
78728;SDS011;68252;44.944;20.218;2023-02-28T08:09:54;28.20;;;15.82;;
78728;SDS011;68252;44.944;20.218;2023-02-28T08:12:20;27.33;;;16.33;;
78728;SDS011;68252;44.944;20.218;2023-02-28T08:14:46;28.55;;;16.30;;
78728;SDS011;68252;44.944;20.218;2023-02-28T08:17:12;31.85;;;16.67;;
78728;SDS011;68252;44.944;20.218;2023-02-28T08:19:38;28.17;;;16.45;;
78728;SDS011;68252;44.944;20.218;2023-02-28T08:22:04;26.33;;;16.08;;
78728;SDS011;68252;44.944;20.218;2023-02-28T08:24:31;35.83;;;18.17;;
78728;SDS011;68252;44.944;20.218;2023-02-28T08:26:58;31.60;;;17.40;;
78728;SDS011;68252;44.944;20.218;2023-02-28T08:29:24;32.90;;;17.00;;
78728;SDS011;68252;44.944;20.218;2023-02-28T08:31:50;31.98;;;17.67;;
78728;SDS011;68252;44.944;20.218;2023-02-28T08:34:16;30.17;;;17.58;;
78728;SDS011;68252;44.944;20.218;2023-02-28T08:36:42;32.75;;;17.00;;
78728;SDS011;68252;44.944;20.218;2023-02-28T08:39:10;29.27;;;16.88;;
78728;SDS011;68252;44.944;20.218;2023-02-28T08:41:36;31.45;;;17.27;;
78728;SDS011;68252;44.944;20.218;2023-02-28T08:44:02;26.60;;;15.82;;
78728;SDS011;68252;44.944;20.218;2023-02-28T08:46:28;33.90;;;17.60;;
78728;SDS011;68252;44.944;20.218;2023-02-28T08:48:55;30.35;;;17.33;;
78728;SDS011;68252;44.944;20.218;2023-02-28T08:51:25;31.20;;;17.05;;
78728;SDS011;68252;44.944;20.218;2023-02-28T08:53:58;37.47;;;19.77;;
78728;SDS011;68252;44.944;20.218;2023-02-28T08:56:25;32.85;;;17.88;;
78728;SDS011;68252;44.944;20.218;2023-02-28T08:58:51;29.50;;;16.23;;
78728;SDS011;68252;44.944;20.218;2023-02-28T09:01:29;31.55;;;17.38;;
78728;SDS011;68252;44.944;20.218;2023-02-28T09:03:56;31.10;;;16.77;;
78728;SDS011;68252;44.944;20.218;2023-02-28T09:06:23;28.17;;;16.52;;
78728;SDS011;68252;44.944;20.218;2023-02-28T09:08:49;30.23;;;17.52;;
78728;SDS011;68252;44.944;20.218;2023-02-28T09:11:16;47.22;;;27.35;;
78728;SDS011;68252;44.944;20.218;2023-02-28T09:13:44;38.83;;;22.48;;
78728;SDS011;68252;44.944;20.218;2023-02-28T09:16:11;41.67;;;23.05;;
78728;SDS011;68252;44.944;20.218;2023-02-28T09:18:38;28.20;;;17.15;;
78728;SDS011;68252;44.944;20.218;2023-02-28T09:21:05;28.58;;;16.83;;
78728;SDS011;68252;44.944;20.218;2023-02-28T09:23:31;27.67;;;16.40;;
78728;SDS011;68252;44.944;20.218;2023-02-28T09:25:58;26.27;;;15.25;;
78728;SDS011;68252;44.944;20.218;2023-02-28T09:28:24;29.40;;;16.85;;
78728;SDS011;68252;44.944;20.218;2023-02-28T09:30:51;24.67;;;14.63;;
78728;SDS011;68252;44.944;20.218;2023-02-28T09:33:18;25.95;;;15.27;;
78728;SDS011;68252;44.944;20.218;2023-02-28T09:35:47;25.48;;;14.30;;
78728;SDS011;68252;44.944;20.218;2023-02-28T09:38:14;25.58;;;15.63;;
78728;SDS011;68252;44.944;20.218;2023-02-28T09:43:15;27.77;;;15.82;;
78728;SDS011;68252;44.944;20.218;2023-02-28T09:45:42;37.50;;;21.27;;
78728;SDS011;68252;44.944;20.218;2023-02-28T09:50:40;22.95;;;13.95;;
78728;SDS011;68252;44.944;20.218;2023-02-28T09:53:13;23.50;;;14.40;;
78728;SDS011;68252;44.944;20.218;2023-02-28T09:55:44;30.83;;;16.52;;
78728;SDS011;68252;44.944;20.218;2023-02-28T09:58:28;24.00;;;13.68;;
78728;SDS011;68252;44.944;20.218;2023-02-28T10:00:57;24.67;;;14.13;;
78728;SDS011;68252;44.944;20.218;2023-02-28T10:06:04;27.75;;;15.40;;
78728;SDS011;68252;44.944;20.218;2023-02-28T10:11:40;46.20;;;25.48;;
78728;SDS011;68252;44.944;20.218;2023-02-28T10:22:08;25.20;;;15.68;;
78728;SDS011;68252;44.944;20.218;2023-02-28T10:24:38;21.42;;;14.00;;
78728;SDS011;68252;44.944;20.218;2023-02-28T10:29:45;21.33;;;12.18;;
78728;SDS011;68252;44.944;20.218;2023-02-28T10:32:13;21.95;;;12.90;;
78728;SDS011;68252;44.944;20.218;2023-02-28T10:34:40;24.48;;;14.32;;
78728;SDS011;68252;44.944;20.218;2023-02-28T10:37:06;21.63;;;13.02;;
78728;SDS011;68252;44.944;20.218;2023-02-28T10:39:39;21.48;;;12.25;;
78728;SDS011;68252;44.944;20.218;2023-02-28T10:42:18;18.60;;;11.45;;
78728;SDS011;68252;44.944;20.218;2023-02-28T10:44:45;20.48;;;12.30;;
78728;SDS011;68252;44.944;20.218;2023-02-28T10:47:14;21.08;;;12.48;;
78728;SDS011;68252;44.944;20.218;2023-02-28T10:49:46;21.35;;;12.65;;
78728;SDS011;68252;44.944;20.218;2023-02-28T10:52:12;18.55;;;11.00;;
78728;SDS011;68252;44.944;20.218;2023-02-28T10:54:39;23.30;;;11.95;;
78728;SDS011;68252;44.944;20.218;2023-02-28T10:59:35;28.30;;;12.23;;
78728;SDS011;68252;44.944;20.218;2023-02-28T11:02:01;20.60;;;12.23;;
78728;SDS011;68252;44.944;20.218;2023-02-28T11:07:18;20.48;;;11.25;;
78728;SDS011;68252;44.944;20.218;2023-02-28T11:09:45;19.73;;;12.07;;
78728;SDS011;68252;44.944;20.218;2023-02-28T11:14:53;21.70;;;12.68;;
78728;SDS011;68252;44.944;20.218;2023-02-28T11:17:30;19.60;;;11.40;;
78728;SDS011;68252;44.944;20.218;2023-02-28T11:20:06;21.30;;;11.43;;
78728;SDS011;68252;44.944;20.218;2023-02-28T11:22:35;19.15;;;11.00;;
78728;SDS011;68252;44.944;20.218;2023-02-28T11:25:07;18.70;;;11.45;;
78728;SDS011;68252;44.944;20.218;2023-02-28T11:30:02;19.70;;;11.55;;
78728;SDS011;68252;44.944;20.218;2023-02-28T11:32:29;23.27;;;12.93;;
78728;SDS011;68252;44.944;20.218;2023-02-28T11:35:03;25.88;;;12.98;;
78728;SDS011;68252;44.944;20.218;2023-02-28T11:37:29;19.10;;;11.73;;
78728;SDS011;68252;44.944;20.218;2023-02-28T11:39:56;27.42;;;14.13;;
78728;SDS011;68252;44.944;20.218;2023-02-28T11:50:30;24.50;;;12.45;;
78728;SDS011;68252;44.944;20.218;2023-02-28T11:53:10;27.90;;;14.88;;
78728;SDS011;68252;44.944;20.218;2023-02-28T11:55:39;21.10;;;12.10;;
78728;SDS011;68252;44.944;20.218;2023-02-28T11:58:16;20.35;;;12.63;;
78728;SDS011;68252;44.944;20.218;2023-02-28T12:05:44;20.13;;;10.93;;
78728;SDS011;68252;44.944;20.218;2023-02-28T12:08:40;26.30;;;12.88;;
78728;SDS011;68252;44.944;20.218;2023-02-28T12:13:41;20.38;;;12.82;;
78728;SDS011;68252;44.944;20.218;2023-02-28T12:21:20;20.60;;;12.38;;
78728;SDS011;68252;44.944;20.218;2023-02-28T12:26:47;22.20;;;13.13;;
78728;SDS011;68252;44.944;20.218;2023-02-28T12:29:23;22.30;;;13.48;;
78728;SDS011;68252;44.944;20.218;2023-02-28T12:34:37;21.27;;;12.18;;
78728;SDS011;68252;44.944;20.218;2023-02-28T12:37:06;23.60;;;11.77;;
78728;SDS011;68252;44.944;20.218;2023-02-28T12:39:37;19.77;;;11.75;;
78728;SDS011;68252;44.944;20.218;2023-02-28T12:47:21;21.95;;;11.90;;
78728;SDS011;68252;44.944;20.218;2023-02-28T12:55:32;23.73;;;12.25;;
78728;SDS011;68252;44.944;20.218;2023-02-28T13:03:19;22.70;;;11.45;;
78728;SDS011;68252;44.944;20.218;2023-02-28T13:05:56;21.48;;;12.52;;
78728;SDS011;68252;44.944;20.218;2023-02-28T13:10:59;29.50;;;14.15;;
78728;SDS011;68252;44.944;20.218;2023-02-28T13:13:28;24.92;;;13.95;;
78728;SDS011;68252;44.944;20.218;2023-02-28T13:16:04;21.30;;;12.18;;
78728;SDS011;68252;44.944;20.218;2023-02-28T13:18:37;22.15;;;12.95;;
78728;SDS011;68252;44.944;20.218;2023-02-28T13:21:04;21.25;;;11.43;;
78728;SDS011;68252;44.944;20.218;2023-02-28T13:26:12;21.55;;;12.43;;
78728;SDS011;68252;44.944;20.218;2023-02-28T13:31:18;19.33;;;11.10;;
78728;SDS011;68252;44.944;20.218;2023-02-28T13:38:41;28.63;;;15.25;;
78728;SDS011;68252;44.944;20.218;2023-02-28T13:46:26;17.23;;;10.73;;
78728;SDS011;68252;44.944;20.218;2023-02-28T13:48:52;22.25;;;12.02;;
78728;SDS011;68252;44.944;20.218;2023-02-28T13:54:13;29.08;;;14.55;;
78728;SDS011;68252;44.944;20.218;2023-02-28T13:56:53;22.08;;;12.85;;
78728;SDS011;68252;44.944;20.218;2023-02-28T14:06:48;20.08;;;13.07;;
78728;SDS011;68252;44.944;20.218;2023-02-28T14:11:41;31.27;;;15.23;;
78728;SDS011;68252;44.944;20.218;2023-02-28T14:14:08;30.80;;;15.70;;
78728;SDS011;68252;44.944;20.218;2023-02-28T14:16:36;34.95;;;16.58;;
78728;SDS011;68252;44.944;20.218;2023-02-28T14:19:25;30.20;;;17.90;;
78728;SDS011;68252;44.944;20.218;2023-02-28T14:24:32;27.13;;;15.65;;
78728;SDS011;68252;44.944;20.218;2023-02-28T14:37:34;34.50;;;19.15;;
78728;SDS011;68252;44.944;20.218;2023-02-28T14:40:04;74.03;;;36.33;;
78728;SDS011;68252;44.944;20.218;2023-02-28T14:44:57;34.88;;;19.45;;
78728;SDS011;68252;44.944;20.218;2023-02-28T14:47:24;32.58;;;19.67;;
78728;SDS011;68252;44.944;20.218;2023-02-28T14:49:51;33.25;;;18.60;;
78728;SDS011;68252;44.944;20.218;2023-02-28T14:52:22;31.60;;;18.35;;
78728;SDS011;68252;44.944;20.218;2023-02-28T14:54:55;31.15;;;18.75;;
78728;SDS011;68252;44.944;20.218;2023-02-28T14:57:27;36.97;;;18.13;;
78728;SDS011;68252;44.944;20.218;2023-02-28T15:00:00;28.38;;;16.65;;
78728;SDS011;68252;44.944;20.218;2023-02-28T15:02:29;30.23;;;17.10;;
78728;SDS011;68252;44.944;20.218;2023-02-28T15:05:00;33.05;;;16.60;;
78728;SDS011;68252;44.944;20.218;2023-02-28T15:07:26;32.50;;;17.02;;
78728;SDS011;68252;44.944;20.218;2023-02-28T15:12:34;29.50;;;16.00;;
78728;SDS011;68252;44.944;20.218;2023-02-28T15:15:01;33.10;;;16.58;;
78728;SDS011;68252;44.944;20.218;2023-02-28T15:17:27;32.05;;;17.70;;
78728;SDS011;68252;44.944;20.218;2023-02-28T15:19:53;28.73;;;15.82;;
78728;SDS011;68252;44.944;20.218;2023-02-28T15:22:38;34.40;;;15.75;;
78728;SDS011;68252;44.944;20.218;2023-02-28T15:25:04;33.67;;;18.08;;
78728;SDS011;68252;44.944;20.218;2023-02-28T15:27:33;28.75;;;15.75;;
78728;SDS011;68252;44.944;20.218;2023-02-28T15:30:00;29.20;;;16.00;;
78728;SDS011;68252;44.944;20.218;2023-02-28T15:32:31;28.35;;;15.43;;
78728;SDS011;68252;44.944;20.218;2023-02-28T15:34:59;28.95;;;16.23;;
78728;SDS011;68252;44.944;20.218;2023-02-28T15:42:41;24.17;;;12.65;;
78728;SDS011;68252;44.944;20.218;2023-02-28T15:45:28;27.30;;;14.80;;
78728;SDS011;68252;44.944;20.218;2023-02-28T15:47:54;25.90;;;14.15;;
78728;SDS011;68252;44.944;20.218;2023-02-28T15:50:21;25.58;;;13.73;;
78728;SDS011;68252;44.944;20.218;2023-02-28T15:52:47;26.55;;;13.98;;
78728;SDS011;68252;44.944;20.218;2023-02-28T15:55:20;29.55;;;14.43;;
78728;SDS011;68252;44.944;20.218;2023-02-28T15:57:48;30.63;;;15.77;;
78728;SDS011;68252;44.944;20.218;2023-02-28T16:00:18;32.83;;;16.40;;
78728;SDS011;68252;44.944;20.218;2023-02-28T16:02:44;27.58;;;15.95;;
78728;SDS011;68252;44.944;20.218;2023-02-28T16:07:37;30.13;;;16.17;;
78728;SDS011;68252;44.944;20.218;2023-02-28T16:10:04;32.03;;;17.70;;
78728;SDS011;68252;44.944;20.218;2023-02-28T16:12:31;30.63;;;17.13;;
78728;SDS011;68252;44.944;20.218;2023-02-28T16:14:59;27.90;;;16.08;;
78728;SDS011;68252;44.944;20.218;2023-02-28T16:17:28;31.45;;;16.23;;
78728;SDS011;68252;44.944;20.218;2023-02-28T16:19:54;32.33;;;16.88;;
78728;SDS011;68252;44.944;20.218;2023-02-28T16:22:21;32.33;;;17.55;;
78728;SDS011;68252;44.944;20.218;2023-02-28T16:24:47;32.80;;;18.35;;
78728;SDS011;68252;44.944;20.218;2023-02-28T16:27:32;39.33;;;19.33;;
78728;SDS011;68252;44.944;20.218;2023-02-28T16:30:01;33.08;;;18.52;;
78728;SDS011;68252;44.944;20.218;2023-02-28T16:32:27;44.97;;;21.55;;
78728;SDS011;68252;44.944;20.218;2023-02-28T16:34:53;44.13;;;21.77;;
78728;SDS011;68252;44.944;20.218;2023-02-28T16:37:19;42.38;;;21.25;;
78728;SDS011;68252;44.944;20.218;2023-02-28T16:39:45;35.55;;;18.02;;
78728;SDS011;68252;44.944;20.218;2023-02-28T16:42:15;37.95;;;17.98;;
78728;SDS011;68252;44.944;20.218;2023-02-28T16:44:41;31.48;;;17.15;;
78728;SDS011;68252;44.944;20.218;2023-02-28T16:47:08;35.10;;;17.35;;
78728;SDS011;68252;44.944;20.218;2023-02-28T16:49:36;32.45;;;17.60;;
78728;SDS011;68252;44.944;20.218;2023-02-28T16:52:02;33.78;;;18.20;;
78728;SDS011;68252;44.944;20.218;2023-02-28T16:54:31;31.63;;;17.52;;
78728;SDS011;68252;44.944;20.218;2023-02-28T16:56:57;49.65;;;23.05;;
78728;SDS011;68252;44.944;20.218;2023-02-28T16:59:23;50.28;;;22.88;;
78728;SDS011;68252;44.944;20.218;2023-02-28T17:01:50;35.55;;;19.90;;
78728;SDS011;68252;44.944;20.218;2023-02-28T17:04:16;42.55;;;21.83;;
78728;SDS011;68252;44.944;20.218;2023-02-28T17:06:42;38.42;;;20.48;;